Wetterdaten: Woche 16.05.16 - 22.05.16 (KW20)
Datum Zeit Temp. Auen Feucht Auen Luftdruck Regen Richtung Windben
16.05.2016 00:00 6,4 C 79 % 1021,0 hPa 0,0 mm W 11,8 km/h (2 Bft)
16.05.2016 01:00 6,2 C 81 % 1021,1 hPa 0,0 mm W 6,7 km/h (2 Bft)
16.05.2016 02:00 5,8 C 84 % 1021,0 hPa 0,2 mm W 12,3 km/h (3 Bft)
16.05.2016 03:00 5,4 C 85 % 1021,0 hPa 0,0 mm W 9,8 km/h (2 Bft)
16.05.2016 04:00 5,3 C 85 % 1020,8 hPa 0,0 mm W 9,8 km/h (2 Bft)
16.05.2016 05:00 5,6 C 82 % 1020,5 hPa 0,0 mm W 12,1 km/h (2 Bft)
16.05.2016 06:00 5,8 C 80 % 1020,5 hPa 0,0 mm W 6,0 km/h (2 Bft)
16.05.2016 07:00 6,5 C 79 % 1020,5 hPa 0,0 mm W 9,5 km/h (2 Bft)
16.05.2016 08:00 7,5 C 76 % 1020,7 hPa 0,0 mm W 12,4 km/h (3 Bft)
16.05.2016 09:00 7,8 C 76 % 1020,7 hPa 0,0 mm W 14,2 km/h (3 Bft)
16.05.2016 10:00 8,7 C 71 % 1020,5 hPa 0,0 mm W 15,8 km/h (3 Bft)
16.05.2016 11:00 9,0 C 71 % 1020,6 hPa 0,2 mm W 15,6 km/h (3 Bft)
16.05.2016 12:00 9,1 C 78 % 1020,6 hPa 0,0 mm W 15,6 km/h (3 Bft)
16.05.2016 13:00 8,4 C 81 % 1020,4 hPa 0,2 mm W 13,6 km/h (3 Bft)
16.05.2016 14:00 8,5 C 81 % 1019,8 hPa 0,0 mm W 6,5 km/h (2 Bft)
16.05.2016 15:00 8,1 C 85 % 1019,6 hPa 0,6 mm W 10,9 km/h (2 Bft)
16.05.2016 16:00 9,5 C 83 % 1019,0 hPa 0,0 mm W 11,7 km/h (2 Bft)
16.05.2016 17:00 9,9 C 78 % 1018,5 hPa 0,2 mm W 10,1 km/h (2 Bft)
16.05.2016 18:00 8,1 C 86 % 1018,8 hPa 0,8 mm W 9,8 km/h (2 Bft)
16.05.2016 19:00 6,5 C 88 % 1019,4 hPa 1,4 mm W 8,3 km/h (2 Bft)
16.05.2016 20:00 6,0 C 88 % 1019,7 hPa 2,0 mm W 10,9 km/h (2 Bft)
16.05.2016 21:00 5,1 C 88 % 1020,4 hPa 0,4 mm W 8,3 km/h (2 Bft)
16.05.2016 22:00 5,3 C 88 % 1020,7 hPa 0,0 mm W 4,8 km/h (1 Bft)
16.05.2016 23:00 5,3 C 88 % 1020,9 hPa 0,0 mm W 3,9 km/h (1 Bft)
17.05.2016 00:00 5,5 C 88 % 1021,1 hPa 0,0 mm W 1,3 km/h (1 Bft)
17.05.2016 01:00 5,5 C 88 % 1021,0 hPa 0,0 mm W 1,7 km/h (1 Bft)
17.05.2016 02:00 5,6 C 87 % 1020,9 hPa 0,0 mm W 0,5 km/h (0 Bft)
17.05.2016 03:00 5,5 C 87 % 1020,7 hPa 0,0 mm W 0,0 km/h (0 Bft)
17.05.2016 04:00 5,2 C 87 % 1020,5 hPa 0,0 mm W 0,0 km/h (0 Bft)
17.05.2016 05:00 4,6 C 87 % 1020,2 hPa 0,2 mm W 0,0 km/h (0 Bft)
17.05.2016 06:00 4,7 C 86 % 1020,2 hPa 0,0 mm W 0,0 km/h (0 Bft)
17.05.2016 07:00 5,4 C 86 % 1020,4 hPa 0,0 mm W 0,0 km/h (0 Bft)
17.05.2016 08:00 6,5 C 87 % 1020,6 hPa 0,0 mm W 4,4 km/h (1 Bft)
17.05.2016 09:00 6,3 C 88 % 1021,0 hPa 0,6 mm W 5,9 km/h (2 Bft)
17.05.2016 10:00 7,7 C 87 % 1020,9 hPa 0,0 mm W-NW 4,7 km/h (1 Bft)
17.05.2016 11:00 10,2 C 82 % 1020,7 hPa 0,0 mm W 9,9 km/h (2 Bft)
17.05.2016 12:00 9,5 C 81 % 1020,5 hPa 0,0 mm W 11,4 km/h (2 Bft)
17.05.2016 13:00 10,4 C 80 % 1020,5 hPa 0,0 mm W 11,7 km/h (2 Bft)
17.05.2016 14:00 12,3 C 71 % 1019,7 hPa 0,0 mm W 13,7 km/h (3 Bft)
17.05.2016 15:00 11,1 C 77 % 1019,5 hPa 0,4 mm W 14,5 km/h (3 Bft)
17.05.2016 16:00 9,9 C 83 % 1019,4 hPa 0,0 mm W 10,9 km/h (2 Bft)
17.05.2016 17:00 11,2 C 78 % 1019,1 hPa 0,0 mm W 7,6 km/h (2 Bft)
17.05.2016 18:00 11,5 C 75 % 1018,6 hPa 0,0 mm W-NW 7,8 km/h (2 Bft)
17.05.2016 19:00 10,8 C 77 % 1018,5 hPa 0,0 mm W 4,3 km/h (1 Bft)
17.05.2016 20:00 9,6 C 86 % 1018,6 hPa 0,0 mm W 0,3 km/h (0 Bft)
17.05.2016 21:00 8,7 C 87 % 1019,0 hPa 0,0 mm W 0,0 km/h (0 Bft)
17.05.2016 22:00 7,9 C 87 % 1019,2 hPa 0,0 mm W 0,0 km/h (0 Bft)
17.05.2016 23:00 6,9 C 87 % 1019,2 hPa 0,0 mm W 0,3 km/h (0 Bft)
18.05.2016 00:00 6,2 C 86 % 1019,0 hPa 0,0 mm W 0,1 km/h (0 Bft)
18.05.2016 01:00 6,6 C 86 % 1018,6 hPa 0,0 mm W 0,7 km/h (0 Bft)
18.05.2016 02:00 6,7 C 86 % 1018,2 hPa 0,0 mm W 0,1 km/h (0 Bft)
18.05.2016 03:00 6,7 C 85 % 1017,7 hPa 0,0 mm W 0,1 km/h (0 Bft)
18.05.2016 04:00 6,5 C 85 % 1017,4 hPa 0,0 mm W 0,3 km/h (0 Bft)
18.05.2016 05:00 6,1 C 85 % 1017,1 hPa 0,0 mm W 0,5 km/h (0 Bft)
18.05.2016 06:00 6,0 C 85 % 1017,0 hPa 0,0 mm W 1,1 km/h (0 Bft)
18.05.2016 07:00 8,0 C 86 % 1017,0 hPa 0,0 mm W 0,7 km/h (0 Bft)
18.05.2016 08:00 9,3 C 87 % 1016,8 hPa 0,0 mm W-SW 2,7 km/h (1 Bft)
18.05.2016 09:00 11,6 C 81 % 1016,4 hPa 0,0 mm O-SO 6,1 km/h (2 Bft)
18.05.2016 10:00 13,8 C 68 % 1015,9 hPa 0,0 mm O-SO 8,4 km/h (2 Bft)
18.05.2016 11:00 16,8 C 57 % 1015,2 hPa 0,0 mm W 10,6 km/h (2 Bft)
18.05.2016 12:00 18,1 C 53 % 1014,6 hPa 0,0 mm W 9,8 km/h (2 Bft)
18.05.2016 13:00 18,1 C 53 % 1013,9 hPa 0,0 mm W 8,7 km/h (2 Bft)
18.05.2016 14:00 18,2 C 53 % 1013,1 hPa 0,0 mm N-NO 8,4 km/h (2 Bft)
18.05.2016 15:00 17,7 C 55 % 1012,3 hPa 0,0 mm O-NO 11,3 km/h (2 Bft)
18.05.2016 16:00 17,7 C 54 % 1011,7 hPa 0,0 mm O-NO 10,5 km/h (2 Bft)
18.05.2016 17:00 17,8 C 53 % 1011,0 hPa 0,0 mm N-NO 7,8 km/h (2 Bft)
18.05.2016 18:00 17,3 C 54 % 1010,5 hPa 0,0 mm N-NO 8,2 km/h (2 Bft)
18.05.2016 19:00 16,3 C 58 % 1010,2 hPa 0,0 mm N-NO 4,9 km/h (1 Bft)
18.05.2016 20:00 13,2 C 75 % 1010,1 hPa 0,0 mm O 0,7 km/h (0 Bft)
18.05.2016 21:00 10,5 C 83 % 1010,3 hPa 0,0 mm O 0,0 km/h (0 Bft)
18.05.2016 22:00 9,0 C 87 % 1010,4 hPa 0,0 mm O 0,4 km/h (0 Bft)
18.05.2016 23:00 9,0 C 87 % 1010,1 hPa 0,0 mm O 0,0 km/h (0 Bft)
19.05.2016 00:00 9,6 C 87 % 1009,6 hPa 0,0 mm O 1,3 km/h (1 Bft)
19.05.2016 01:00 9,8 C 86 % 1008,9 hPa 0,2 mm W-SW 2,9 km/h (1 Bft)
19.05.2016 02:00 9,1 C 86 % 1008,4 hPa 0,0 mm S-SW 1,2 km/h (1 Bft)
19.05.2016 03:00 8,6 C 84 % 1007,8 hPa 0,0 mm N 1,2 km/h (1 Bft)
19.05.2016 04:00 8,8 C 84 % 1007,4 hPa 0,0 mm N-NW 0,8 km/h (0 Bft)
19.05.2016 05:00 8,6 C 84 % 1007,7 hPa 0,0 mm N-NW 4,0 km/h (1 Bft)
19.05.2016 06:00 9,6 C 84 % 1008,3 hPa 0,0 mm W-NW 4,5 km/h (1 Bft)
19.05.2016 07:00 11,5 C 86 % 1008,8 hPa 0,0 mm W 6,0 km/h (2 Bft)
19.05.2016 08:00 13,5 C 82 % 1008,9 hPa 0,0 mm W 7,8 km/h (2 Bft)
19.05.2016 09:00 14,3 C 78 % 1009,1 hPa 0,2 mm W 8,0 km/h (2 Bft)
19.05.2016 10:00 14,2 C 77 % 1009,3 hPa 0,0 mm W-SW 7,9 km/h (2 Bft)
19.05.2016 11:00 14,1 C 77 % 1009,7 hPa 0,0 mm W 8,2 km/h (2 Bft)
19.05.2016 12:00 14,2 C 78 % 1009,8 hPa 0,0 mm W 9,8 km/h (2 Bft)
19.05.2016 13:00 13,9 C 78 % 1009,9 hPa 0,0 mm W 14,2 km/h (3 Bft)
19.05.2016 14:00 10,4 C 85 % 1011,0 hPa 1,0 mm W 19,3 km/h (3 Bft)
19.05.2016 15:00 8,9 C 87 % 1012,4 hPa 3,0 mm W 13,2 km/h (3 Bft)
19.05.2016 16:00 8,6 C 86 % 1013,3 hPa 2,2 mm W 10,9 km/h (2 Bft)
19.05.2016 17:00 8,8 C 85 % 1013,6 hPa 0,8 mm W 6,4 km/h (2 Bft)
19.05.2016 18:00 8,7 C 86 % 1014,2 hPa 0,8 mm W 7,9 km/h (2 Bft)
19.05.2016 19:00 8,4 C 85 % 1015,1 hPa 0,6 mm W 6,3 km/h (2 Bft)
19.05.2016 20:00 8,1 C 85 % 1015,9 hPa 0,2 mm W 6,8 km/h (2 Bft)
19.05.2016 21:00 8,3 C 84 % 1016,9 hPa 0,2 mm W-SW 2,9 km/h (1 Bft)
19.05.2016 22:00 8,2 C 84 % 1017,5 hPa 0,4 mm W 3,6 km/h (1 Bft)
19.05.2016 23:00 8,2 C 84 % 1018,0 hPa 0,2 mm W 4,1 km/h (1 Bft)
20.05.2016 00:00 8,2 C 83 % 1018,6 hPa 0,6 mm W 3,5 km/h (1 Bft)
20.05.2016 01:00 8,2 C 83 % 1018,9 hPa 1,4 mm W 2,9 km/h (1 Bft)
20.05.2016 02:00 8,2 C 83 % 1019,2 hPa 0,4 mm W 3,5 km/h (1 Bft)
20.05.2016 03:00 8,3 C 83 % 1019,3 hPa 0,8 mm W 2,1 km/h (1 Bft)
20.05.2016 04:00 8,4 C 83 % 1019,6 hPa 0,0 mm W 0,5 km/h (0 Bft)
20.05.2016 05:00 8,6 C 83 % 1020,2 hPa 0,6 mm W 4,7 km/h (1 Bft)
20.05.2016 06:00 8,6 C 83 % 1020,5 hPa 2,2 mm W 8,2 km/h (2 Bft)
20.05.2016 07:00 8,6 C 83 % 1020,9 hPa 2,4 mm W 9,3 km/h (2 Bft)
20.05.2016 08:00 8,8 C 83 % 1021,4 hPa 0,4 mm W 8,2 km/h (2 Bft)
20.05.2016 09:00 9,0 C 83 % 1021,8 hPa 0,0 mm W 9,1 km/h (2 Bft)
20.05.2016 10:00 9,4 C 84 % 1022,3 hPa 0,2 mm W-SW 7,9 km/h (2 Bft)
20.05.2016 11:00 9,7 C 83 % 1022,6 hPa 0,2 mm W 5,6 km/h (1 Bft)
20.05.2016 12:00 9,8 C 83 % 1022,8 hPa 0,0 mm W-SW 6,0 km/h (2 Bft)
20.05.2016 13:00 10,5 C 85 % 1022,9 hPa 0,0 mm W 7,5 km/h (2 Bft)
20.05.2016 14:00 12,1 C 85 % 1022,7 hPa 0,0 mm W-SW 6,3 km/h (2 Bft)
20.05.2016 15:00 14,0 C 79 % 1022,4 hPa 0,0 mm W 7,2 km/h (2 Bft)
20.05.2016 16:00 14,7 C 75 % 1022,0 hPa 0,0 mm W 6,5 km/h (2 Bft)
20.05.2016 17:00 15,2 C 71 % 1021,7 hPa 0,0 mm W 5,5 km/h (1 Bft)
20.05.2016 18:00 14,9 C 72 % 1021,4 hPa 0,0 mm O-SO 5,4 km/h (1 Bft)
20.05.2016 19:00 13,7 C 80 % 1021,3 hPa 0,0 mm O-SO 3,9 km/h (1 Bft)
20.05.2016 20:00 11,3 C 86 % 1021,4 hPa 0,0 mm O-SO 0,3 km/h (0 Bft)
20.05.2016 21:00 9,2 C 86 % 1021,7 hPa 0,0 mm S 0,8 km/h (0 Bft)
20.05.2016 22:00 8,1 C 85 % 1022,2 hPa 0,0 mm W 1,2 km/h (1 Bft)
20.05.2016 23:00 8,2 C 84 % 1022,4 hPa 0,0 mm W 2,0 km/h (1 Bft)
21.05.2016 00:00 8,1 C 83 % 1022,2 hPa 0,0 mm W 0,1 km/h (0 Bft)
21.05.2016 01:00 6,9 C 84 % 1022,1 hPa 0,0 mm W 0,3 km/h (0 Bft)
21.05.2016 02:00 5,8 C 84 % 1021,9 hPa 0,0 mm W 0,3 km/h (0 Bft)
21.05.2016 03:00 5,0 C 84 % 1021,8 hPa 0,0 mm W 0,1 km/h (0 Bft)
21.05.2016 04:00 4,4 C 84 % 1021,9 hPa 0,0 mm W 0,0 km/h (0 Bft)
21.05.2016 05:00 4,1 C 85 % 1022,0 hPa 0,0 mm W 0,5 km/h (0 Bft)
21.05.2016 06:00 6,3 C 84 % 1022,0 hPa 0,0 mm W 0,0 km/h (0 Bft)
21.05.2016 07:00 9,6 C 85 % 1021,7 hPa 0,0 mm W 0,8 km/h (0 Bft)
21.05.2016 08:00 12,0 C 86 % 1021,5 hPa 0,0 mm O-SO 4,1 km/h (1 Bft)
21.05.2016 09:00 14,5 C 82 % 1021,3 hPa 0,0 mm O 6,0 km/h (2 Bft)
21.05.2016 10:00 16,9 C 73 % 1020,8 hPa 0,0 mm O 10,2 km/h (2 Bft)
21.05.2016 11:00 18,6 C 65 % 1020,2 hPa 0,0 mm O-SO 11,4 km/h (2 Bft)
21.05.2016 12:00 19,6 C 59 % 1019,7 hPa 0,0 mm O 10,3 km/h (2 Bft)
21.05.2016 13:00 20,7 C 53 % 1019,1 hPa 0,0 mm O-SO 7,8 km/h (2 Bft)
21.05.2016 14:00 21,2 C 51 % 1018,5 hPa 0,0 mm O 8,3 km/h (2 Bft)
21.05.2016 15:00 21,7 C 51 % 1018,1 hPa 0,0 mm O-SO 9,1 km/h (2 Bft)
21.05.2016 16:00 21,9 C 50 % 1017,6 hPa 0,0 mm O 8,3 km/h (2 Bft)
21.05.2016 17:00 21,7 C 54 % 1017,1 hPa 0,0 mm O 10,1 km/h (2 Bft)
21.05.2016 18:00 21,0 C 59 % 1016,9 hPa 0,0 mm O-SO 7,2 km/h (2 Bft)
21.05.2016 19:00 19,6 C 69 % 1016,8 hPa 0,0 mm O 3,2 km/h (1 Bft)
21.05.2016 20:00 16,4 C 78 % 1017,0 hPa 0,0 mm O 0,1 km/h (0 Bft)
21.05.2016 21:00 13,6 C 85 % 1017,1 hPa 0,0 mm O 0,0 km/h (0 Bft)
21.05.2016 22:00 12,0 C 86 % 1017,2 hPa 0,0 mm O 0,0 km/h (0 Bft)
21.05.2016 23:00 11,0 C 86 % 1017,2 hPa 0,0 mm O 0,4 km/h (0 Bft)
22.05.2016 00:00 10,2 C 86 % 1016,9 hPa 0,0 mm O 0,3 km/h (0 Bft)
22.05.2016 01:00 9,5 C 85 % 1016,2 hPa 0,0 mm O 0,9 km/h (0 Bft)
22.05.2016 02:00 8,7 C 85 % 1015,5 hPa 0,0 mm O 0,5 km/h (0 Bft)
22.05.2016 03:00 8,1 C 85 % 1014,9 hPa 0,0 mm O 0,1 km/h (0 Bft)
22.05.2016 04:00 7,4 C 85 % 1014,6 hPa 0,0 mm O 0,3 km/h (0 Bft)
22.05.2016 05:00 7,1 C 84 % 1014,4 hPa 0,0 mm O 0,1 km/h (0 Bft)
22.05.2016 06:00 9,8 C 85 % 1014,1 hPa 0,0 mm O 1,1 km/h (0 Bft)
22.05.2016 07:00 13,9 C 83 % 1013,5 hPa 0,0 mm O 1,1 km/h (0 Bft)
22.05.2016 08:00 17,5 C 71 % 1012,9 hPa 0,0 mm SO 4,5 km/h (1 Bft)
22.05.2016 09:00 20,4 C 60 % 1012,1 hPa 0,0 mm S-SO 4,8 km/h (1 Bft)
22.05.2016 10:00 22,7 C 55 % 1011,6 hPa 0,0 mm SO 6,7 km/h (2 Bft)
22.05.2016 11:00 24,3 C 51 % 1011,1 hPa 0,0 mm O 8,0 km/h (2 Bft)
22.05.2016 12:00 24,8 C 55 % 1010,4 hPa 0,0 mm SO 10,5 km/h (2 Bft)
22.05.2016 13:00 25,6 C 54 % 1009,6 hPa 0,0 mm O-SO 11,4 km/h (2 Bft)
22.05.2016 14:00 26,5 C 54 % 1008,8 hPa 0,0 mm SO 11,4 km/h (2 Bft)
22.05.2016 15:00 26,9 C 58 % 1007,8 hPa 0,0 mm O 12,8 km/h (3 Bft)
22.05.2016 16:00 27,0 C 58 % 1007,1 hPa 0,0 mm O-SO 14,6 km/h (3 Bft)
22.05.2016 17:00 26,9 C 57 % 1006,7 hPa 0,0 mm O 14,0 km/h (3 Bft)
22.05.2016 18:00 26,1 C 57 % 1006,4 hPa 0,0 mm O 10,9 km/h (2 Bft)
22.05.2016 19:00 24,2 C 65 % 1005,9 hPa 0,0 mm SO 6,5 km/h (2 Bft)
22.05.2016 20:00 21,5 C 73 % 1005,7 hPa 0,0 mm SO 1,6 km/h (1 Bft)
22.05.2016 21:00 18,2 C 83 % 1006,1 hPa 0,0 mm SO 0,8 km/h (0 Bft)
22.05.2016 22:00 16,5 C 86 % 1006,4 hPa 0,0 mm W 4,7 km/h (1 Bft)
22.05.2016 23:00 15,6 C 84 % 1006,7 hPa 0,0 mm W 4,3 km/h (1 Bft)
Min-Datum _ 21.05.16 18.05.16 22.05.16 - - 16.05.16
_ Min-Zeit 05:15 13:45 20:10 - - 23:45
Minimum _ 3,9 C 46 % 1005,6 hPa - - 0,0 km/h (0 Bft)
Max-Datum _ 22.05.16 16.05.16 20.05.16 19.05.16 - 17.05.16
_ Max-Zeit 15:15 19:20 13:10 15:05 - 15:30
Maximum _ 27,1 C 89 % 1023,0 hPa 3,0 mm - 35,4 km/h
W-SW (5 Bft)
Durchschnitt _ 11,4 C 78 % 1016,8 hPa #26,2 mm W 5,8 km/h (2 Bft)